sensor_id;sensor_type;location;lat;lon;timestamp;pressure;altitude;pressure_sealevel;temperature
68027;BMP180;54819;48.030;14.710;2023-10-13T00:00:27;97717.80;;;16.42
68027;BMP180;54819;48.030;14.710;2023-10-13T00:02:59;97712.40;;;16.48
68027;BMP180;54819;48.030;14.710;2023-10-13T00:05:29;97715.00;;;16.50
68027;BMP180;54819;48.030;14.710;2023-10-13T00:08:01;97715.80;;;16.50
68027;BMP180;54819;48.030;14.710;2023-10-13T00:10:30;97714.00;;;16.50
68027;BMP180;54819;48.030;14.710;2023-10-13T00:12:58;97716.40;;;16.58
68027;BMP180;54819;48.030;14.710;2023-10-13T00:15:43;97718.40;;;16.58
68027;BMP180;54819;48.030;14.710;2023-10-13T00:20:53;97710.40;;;16.60
68027;BMP180;54819;48.030;14.710;2023-10-13T00:23:23;97716.60;;;16.60
68027;BMP180;54819;48.030;14.710;2023-10-13T00:25:54;97715.40;;;16.60
68027;BMP180;54819;48.030;14.710;2023-10-13T00:28:28;97719.60;;;16.64
68027;BMP180;54819;48.030;14.710;2023-10-13T00:31:02;97725.20;;;16.70
68027;BMP180;54819;48.030;14.710;2023-10-13T00:33:38;97727.40;;;16.70
68027;BMP180;54819;48.030;14.710;2023-10-13T00:36:08;97729.20;;;16.70
68027;BMP180;54819;48.030;14.710;2023-10-13T00:38:37;97728.80;;;16.80
68027;BMP180;54819;48.030;14.710;2023-10-13T00:41:03;97727.20;;;16.80
68027;BMP180;54819;48.030;14.710;2023-10-13T00:43:47;97726.60;;;16.80
68027;BMP180;54819;48.030;14.710;2023-10-13T00:46:34;97728.80;;;16.80
68027;BMP180;54819;48.030;14.710;2023-10-13T00:49:03;97725.60;;;16.90
68027;BMP180;54819;48.030;14.710;2023-10-13T00:51:35;97720.60;;;16.90
68027;BMP180;54819;48.030;14.710;2023-10-13T00:54:04;97721.60;;;16.90
68027;BMP180;54819;48.030;14.710;2023-10-13T00:56:37;97724.00;;;16.90
68027;BMP180;54819;48.030;14.710;2023-10-13T00:59:08;97713.80;;;17.00
68027;BMP180;54819;48.030;14.710;2023-10-13T01:01:37;97714.80;;;17.00
68027;BMP180;54819;48.030;14.710;2023-10-13T01:04:04;97709.00;;;17.00
68027;BMP180;54819;48.030;14.710;2023-10-13T01:06:35;97707.20;;;17.00
68027;BMP180;54819;48.030;14.710;2023-10-13T01:09:09;97709.60;;;17.00
68027;BMP180;54819;48.030;14.710;2023-10-13T01:11:47;97708.60;;;17.00
68027;BMP180;54819;48.030;14.710;2023-10-13T01:14:20;97707.60;;;16.92
68027;BMP180;54819;48.030;14.710;2023-10-13T01:16:48;97700.60;;;16.90
68027;BMP180;54819;48.030;14.710;2023-10-13T01:19:19;97699.00;;;16.90
68027;BMP180;54819;48.030;14.710;2023-10-13T01:21:51;97693.40;;;16.90
68027;BMP180;54819;48.030;14.710;2023-10-13T01:24:30;97695.40;;;16.90
68027;BMP180;54819;48.030;14.710;2023-10-13T01:27:04;97692.80;;;16.90
68027;BMP180;54819;48.030;14.710;2023-10-13T01:29:45;97689.80;;;16.90
68027;BMP180;54819;48.030;14.710;2023-10-13T01:32:25;97687.40;;;16.90
68027;BMP180;54819;48.030;14.710;2023-10-13T01:34:52;97687.40;;;16.90
68027;BMP180;54819;48.030;14.710;2023-10-13T01:37:22;97688.60;;;16.90
68027;BMP180;54819;48.030;14.710;2023-10-13T01:39:49;97688.40;;;16.90
68027;BMP180;54819;48.030;14.710;2023-10-13T01:42:17;97686.80;;;16.90
68027;BMP180;54819;48.030;14.710;2023-10-13T01:44:49;97690.00;;;16.90
68027;BMP180;54819;48.030;14.710;2023-10-13T01:47:16;97689.40;;;16.92
68027;BMP180;54819;48.030;14.710;2023-10-13T01:49:44;97688.20;;;16.96
68027;BMP180;54819;48.030;14.710;2023-10-13T01:52:14;97692.00;;;17.00
68027;BMP180;54819;48.030;14.710;2023-10-13T01:54:46;97692.60;;;17.00
68027;BMP180;54819;48.030;14.710;2023-10-13T01:57:16;97690.20;;;17.00
68027;BMP180;54819;48.030;14.710;2023-10-13T01:59:50;97694.80;;;17.00
68027;BMP180;54819;48.030;14.710;2023-10-13T02:02:17;97688.60;;;17.00
68027;BMP180;54819;48.030;14.710;2023-10-13T02:04:57;97691.00;;;17.00
68027;BMP180;54819;48.030;14.710;2023-10-13T02:07:27;97693.00;;;17.00
68027;BMP180;54819;48.030;14.710;2023-10-13T02:10:01;97696.20;;;17.00
68027;BMP180;54819;48.030;14.710;2023-10-13T02:12:39;97701.20;;;17.00
68027;BMP180;54819;48.030;14.710;2023-10-13T02:15:12;97701.80;;;17.00
68027;BMP180;54819;48.030;14.710;2023-10-13T02:17:48;97704.80;;;17.00
68027;BMP180;54819;48.030;14.710;2023-10-13T02:20:22;97699.60;;;17.00
68027;BMP180;54819;48.030;14.710;2023-10-13T02:22:58;97701.00;;;17.00
68027;BMP180;54819;48.030;14.710;2023-10-13T02:25:25;97701.20;;;16.90
68027;BMP180;54819;48.030;14.710;2023-10-13T02:28:12;97703.00;;;16.90
68027;BMP180;54819;48.030;14.710;2023-10-13T02:30:48;97708.20;;;16.90
68027;BMP180;54819;48.030;14.710;2023-10-13T02:33:17;97711.20;;;16.80
68027;BMP180;54819;48.030;14.710;2023-10-13T02:35:57;97713.80;;;16.80
68027;BMP180;54819;48.030;14.710;2023-10-13T02:38:24;97717.40;;;16.80
68027;BMP180;54819;48.030;14.710;2023-10-13T02:41:02;97719.80;;;16.74
68027;BMP180;54819;48.030;14.710;2023-10-13T02:43:36;97727.00;;;16.70
68027;BMP180;54819;48.030;14.710;2023-10-13T02:46:04;97721.80;;;16.70
68027;BMP180;54819;48.030;14.710;2023-10-13T02:48:31;97723.00;;;16.70
68027;BMP180;54819;48.030;14.710;2023-10-13T02:51:08;97723.00;;;16.70
68027;BMP180;54819;48.030;14.710;2023-10-13T02:53:45;97720.40;;;16.70
68027;BMP180;54819;48.030;14.710;2023-10-13T02:56:16;97724.60;;;16.70
68027;BMP180;54819;48.030;14.710;2023-10-13T02:58:51;97725.60;;;16.70
68027;BMP180;54819;48.030;14.710;2023-10-13T03:01:23;97718.60;;;16.70
68027;BMP180;54819;48.030;14.710;2023-10-13T03:03:56;97724.60;;;16.68
68027;BMP180;54819;48.030;14.710;2023-10-13T03:06:26;97720.20;;;16.64
68027;BMP180;54819;48.030;14.710;2023-10-13T03:09:07;97718.20;;;16.60
68027;BMP180;54819;48.030;14.710;2023-10-13T03:11:49;97722.40;;;16.60
68027;BMP180;54819;48.030;14.710;2023-10-13T03:14:17;97721.60;;;16.58
68027;BMP180;54819;48.030;14.710;2023-10-13T03:17:02;97724.00;;;16.50
68027;BMP180;54819;48.030;14.710;2023-10-13T03:19:33;97729.80;;;16.40
68027;BMP180;54819;48.030;14.710;2023-10-13T03:22:02;97726.80;;;16.40
68027;BMP180;54819;48.030;14.710;2023-10-13T03:24:37;97731.20;;;16.30
68027;BMP180;54819;48.030;14.710;2023-10-13T03:27:15;97729.40;;;16.30
68027;BMP180;54819;48.030;14.710;2023-10-13T03:29:45;97730.40;;;16.22
68027;BMP180;54819;48.030;14.710;2023-10-13T03:32:21;97730.20;;;16.20
68027;BMP180;54819;48.030;14.710;2023-10-13T03:34:48;97730.40;;;16.20
68027;BMP180;54819;48.030;14.710;2023-10-13T03:37:39;97727.40;;;16.10
68027;BMP180;54819;48.030;14.710;2023-10-13T03:40:11;97725.40;;;16.10
68027;BMP180;54819;48.030;14.710;2023-10-13T03:42:47;97722.20;;;16.10
68027;BMP180;54819;48.030;14.710;2023-10-13T03:45:27;97717.60;;;16.00
68027;BMP180;54819;48.030;14.710;2023-10-13T03:47:53;97723.80;;;16.00
68027;BMP180;54819;48.030;14.710;2023-10-13T03:50:20;97724.80;;;16.00
68027;BMP180;54819;48.030;14.710;2023-10-13T03:52:58;97729.00;;;15.90
68027;BMP180;54819;48.030;14.710;2023-10-13T03:55:25;97726.40;;;15.90
68027;BMP180;54819;48.030;14.710;2023-10-13T03:57:53;97735.40;;;15.86
68027;BMP180;54819;48.030;14.710;2023-10-13T04:00:21;97738.80;;;15.80
68027;BMP180;54819;48.030;14.710;2023-10-13T04:02:51;97731.60;;;15.80
68027;BMP180;54819;48.030;14.710;2023-10-13T04:05:36;97724.60;;;15.78
68027;BMP180;54819;48.030;14.710;2023-10-13T04:08:08;97724.40;;;15.70
68027;BMP180;54819;48.030;14.710;2023-10-13T04:10:55;97725.80;;;15.70
68027;BMP180;54819;48.030;14.710;2023-10-13T04:13:22;97722.20;;;15.62
68027;BMP180;54819;48.030;14.710;2023-10-13T04:16:08;97717.20;;;15.60
68027;BMP180;54819;48.030;14.710;2023-10-13T04:19:02;97710.60;;;15.60
68027;BMP180;54819;48.030;14.710;2023-10-13T04:21:28;97714.60;;;15.60
68027;BMP180;54819;48.030;14.710;2023-10-13T04:24:30;97712.60;;;15.54
68027;BMP180;54819;48.030;14.710;2023-10-13T04:27:26;97705.80;;;15.50
68027;BMP180;54819;48.030;14.710;2023-10-13T04:30:07;97706.20;;;15.50
68027;BMP180;54819;48.030;14.710;2023-10-13T04:32:33;97703.40;;;15.50
68027;BMP180;54819;48.030;14.710;2023-10-13T04:35:05;97709.40;;;15.50
68027;BMP180;54819;48.030;14.710;2023-10-13T04:37:52;97714.60;;;15.50
68027;BMP180;54819;48.030;14.710;2023-10-13T04:40:25;97705.60;;;15.46
68027;BMP180;54819;48.030;14.710;2023-10-13T04:42:52;97710.80;;;15.42
68027;BMP180;54819;48.030;14.710;2023-10-13T04:45:31;97710.80;;;15.40
68027;BMP180;54819;48.030;14.710;2023-10-13T04:48:01;97714.60;;;15.40
68027;BMP180;54819;48.030;14.710;2023-10-13T04:50:41;97714.40;;;15.40
68027;BMP180;54819;48.030;14.710;2023-10-13T04:53:15;97717.00;;;15.40
68027;BMP180;54819;48.030;14.710;2023-10-13T04:56:21;97711.80;;;15.40
68027;BMP180;54819;48.030;14.710;2023-10-13T04:59:06;97711.20;;;15.40
68027;BMP180;54819;48.030;14.710;2023-10-13T05:02:02;97712.80;;;15.40
68027;BMP180;54819;48.030;14.710;2023-10-13T05:05:07;97713.40;;;15.40
68027;BMP180;54819;48.030;14.710;2023-10-13T05:07:48;97711.80;;;15.40
68027;BMP180;54819;48.030;14.710;2023-10-13T05:10:35;97714.00;;;15.40
68027;BMP180;54819;48.030;14.710;2023-10-13T05:13:21;97722.20;;;15.40
68027;BMP180;54819;48.030;14.710;2023-10-13T05:16:06;97713.20;;;15.30
68027;BMP180;54819;48.030;14.710;2023-10-13T05:18:52;97713.40;;;15.30
68027;BMP180;54819;48.030;14.710;2023-10-13T05:21:37;97715.00;;;15.30
68027;BMP180;54819;48.030;14.710;2023-10-13T05:24:23;97715.40;;;15.28
68027;BMP180;54819;48.030;14.710;2023-10-13T05:27:08;97722.80;;;15.26
68027;BMP180;54819;48.030;14.710;2023-10-13T05:29:54;97723.60;;;15.30
68027;BMP180;54819;48.030;14.710;2023-10-13T05:32:40;97723.40;;;15.30
68027;BMP180;54819;48.030;14.710;2023-10-13T05:35:25;97728.60;;;15.30
68027;BMP180;54819;48.030;14.710;2023-10-13T05:38:11;97731.80;;;15.30
68027;BMP180;54819;48.030;14.710;2023-10-13T05:40:58;97733.00;;;15.30
68027;BMP180;54819;48.030;14.710;2023-10-13T05:43:48;97733.60;;;15.30
68027;BMP180;54819;48.030;14.710;2023-10-13T05:46:34;97735.60;;;15.40
68027;BMP180;54819;48.030;14.710;2023-10-13T05:49:05;97735.00;;;15.38
68027;BMP180;54819;48.030;14.710;2023-10-13T05:51:36;97730.60;;;15.40
68027;BMP180;54819;48.030;14.710;2023-10-13T05:54:10;97733.00;;;15.40
68027;BMP180;54819;48.030;14.710;2023-10-13T05:56:44;97730.00;;;15.48
68027;BMP180;54819;48.030;14.710;2023-10-13T05:59:32;97737.80;;;15.50
68027;BMP180;54819;48.030;14.710;2023-10-13T06:02:20;97737.40;;;15.50
68027;BMP180;54819;48.030;14.710;2023-10-13T06:05:10;97740.00;;;15.60
68027;BMP180;54819;48.030;14.710;2023-10-13T06:07:56;97738.40;;;15.60
68027;BMP180;54819;48.030;14.710;2023-10-13T06:10:43;97735.60;;;15.70
68027;BMP180;54819;48.030;14.710;2023-10-13T06:13:28;97737.00;;;15.80
68027;BMP180;54819;48.030;14.710;2023-10-13T06:16:15;97741.80;;;15.90
68027;BMP180;54819;48.030;14.710;2023-10-13T06:19:02;97743.60;;;16.00
68027;BMP180;54819;48.030;14.710;2023-10-13T06:21:48;97748.20;;;16.06
68027;BMP180;54819;48.030;14.710;2023-10-13T06:24:33;97755.40;;;16.10
68027;BMP180;54819;48.030;14.710;2023-10-13T06:27:18;97768.20;;;16.20
68027;BMP180;54819;48.030;14.710;2023-10-13T06:30:04;97771.00;;;16.20
68027;BMP180;54819;48.030;14.710;2023-10-13T06:32:32;97775.60;;;16.16
68027;BMP180;54819;48.030;14.710;2023-10-13T06:35:00;97778.60;;;16.10
68027;BMP180;54819;48.030;14.710;2023-10-13T06:37:45;97774.80;;;16.10
68027;BMP180;54819;48.030;14.710;2023-10-13T06:40:12;97770.60;;;16.10
68027;BMP180;54819;48.030;14.710;2023-10-13T06:43:00;97765.60;;;16.10
68027;BMP180;54819;48.030;14.710;2023-10-13T06:45:43;97764.80;;;16.20
68027;BMP180;54819;48.030;14.710;2023-10-13T06:48:17;97764.60;;;16.20
68027;BMP180;54819;48.030;14.710;2023-10-13T06:50:50;97763.40;;;16.30
68027;BMP180;54819;48.030;14.710;2023-10-13T06:53:19;97759.20;;;16.30
68027;BMP180;54819;48.030;14.710;2023-10-13T06:55:46;97756.60;;;16.32
68027;BMP180;54819;48.030;14.710;2023-10-13T06:58:19;97767.60;;;16.40
68027;BMP180;54819;48.030;14.710;2023-10-13T07:00:51;97767.40;;;16.40
68027;BMP180;54819;48.030;14.710;2023-10-13T07:03:22;97771.00;;;16.50
68027;BMP180;54819;48.030;14.710;2023-10-13T07:05:49;97771.20;;;16.50
68027;BMP180;54819;48.030;14.710;2023-10-13T07:08:18;97776.80;;;16.60
68027;BMP180;54819;48.030;14.710;2023-10-13T07:10:51;97781.00;;;16.60
68027;BMP180;54819;48.030;14.710;2023-10-13T07:13:18;97788.40;;;16.70
68027;BMP180;54819;48.030;14.710;2023-10-13T07:15:46;97791.80;;;16.78
68027;BMP180;54819;48.030;14.710;2023-10-13T07:18:15;97789.60;;;16.80
68027;BMP180;54819;48.030;14.710;2023-10-13T07:20:44;97787.60;;;16.90
68027;BMP180;54819;48.030;14.710;2023-10-13T07:23:12;97784.00;;;17.00
68027;BMP180;54819;48.030;14.710;2023-10-13T07:25:55;97788.60;;;17.06
68027;BMP180;54819;48.030;14.710;2023-10-13T07:28:30;97790.00;;;17.12
68027;BMP180;54819;48.030;14.710;2023-10-13T07:30:57;97783.00;;;17.20
68027;BMP180;54819;48.030;14.710;2023-10-13T07:33:27;97782.80;;;17.30
68027;BMP180;54819;48.030;14.710;2023-10-13T07:38:27;97780.20;;;17.50
68027;BMP180;54819;48.030;14.710;2023-10-13T07:40:58;97774.40;;;17.60
68027;BMP180;54819;48.030;14.710;2023-10-13T07:43:34;97771.40;;;17.70
68027;BMP180;54819;48.030;14.710;2023-10-13T07:46:01;97767.40;;;17.80
68027;BMP180;54819;48.030;14.710;2023-10-13T07:48:33;97765.80;;;17.90
68027;BMP180;54819;48.030;14.710;2023-10-13T07:51:09;97766.20;;;18.00
68027;BMP180;54819;48.030;14.710;2023-10-13T07:53:49;97763.60;;;18.20
68027;BMP180;54819;48.030;14.710;2023-10-13T07:56:16;97759.40;;;18.30
68027;BMP180;54819;48.030;14.710;2023-10-13T07:58:48;97760.20;;;18.44
68027;BMP180;54819;48.030;14.710;2023-10-13T08:01:31;97755.60;;;18.60
68027;BMP180;54819;48.030;14.710;2023-10-13T08:03:59;97758.40;;;18.70
68027;BMP180;54819;48.030;14.710;2023-10-13T08:06:38;97755.60;;;18.90
68027;BMP180;54819;48.030;14.710;2023-10-13T08:09:11;97753.20;;;19.02
68027;BMP180;54819;48.030;14.710;2023-10-13T08:11:56;97754.40;;;19.20
68027;BMP180;54819;48.030;14.710;2023-10-13T08:14:23;97753.40;;;19.34
68027;BMP180;54819;48.030;14.710;2023-10-13T08:17:08;97752.80;;;19.50
68027;BMP180;54819;48.030;14.710;2023-10-13T08:19:39;97753.40;;;19.70
68027;BMP180;54819;48.030;14.710;2023-10-13T08:22:08;97755.20;;;19.84
68027;BMP180;54819;48.030;14.710;2023-10-13T08:24:51;97749.60;;;20.00
68027;BMP180;54819;48.030;14.710;2023-10-13T08:27:20;97756.00;;;20.10
68027;BMP180;54819;48.030;14.710;2023-10-13T08:30:16;97755.60;;;20.28
68027;BMP180;54819;48.030;14.710;2023-10-13T08:32:59;97760.60;;;20.40
68027;BMP180;54819;48.030;14.710;2023-10-13T08:35:44;97757.40;;;20.52
68027;BMP180;54819;48.030;14.710;2023-10-13T08:38:21;97755.60;;;20.70
68027;BMP180;54819;48.030;14.710;2023-10-13T08:40:59;97757.00;;;20.80
68027;BMP180;54819;48.030;14.710;2023-10-13T08:43:45;97762.40;;;20.90
68027;BMP180;54819;48.030;14.710;2023-10-13T08:46:20;97766.40;;;20.94
68027;BMP180;54819;48.030;14.710;2023-10-13T08:49:00;97767.20;;;21.00
68027;BMP180;54819;48.030;14.710;2023-10-13T08:51:36;97770.20;;;21.10
68027;BMP180;54819;48.030;14.710;2023-10-13T08:54:17;97771.20;;;21.10
68027;BMP180;54819;48.030;14.710;2023-10-13T08:57:01;97770.40;;;21.20
68027;BMP180;54819;48.030;14.710;2023-10-13T09:00:09;97767.60;;;21.22
68027;BMP180;54819;48.030;14.710;2023-10-13T09:02:54;97764.60;;;21.30
68027;BMP180;54819;48.030;14.710;2023-10-13T09:05:54;97765.00;;;21.40
68027;BMP180;54819;48.030;14.710;2023-10-13T09:08:33;97766.00;;;21.50
68027;BMP180;54819;48.030;14.710;2023-10-13T09:11:23;97762.20;;;21.60
68027;BMP180;54819;48.030;14.710;2023-10-13T09:13:53;97759.80;;;21.70
68027;BMP180;54819;48.030;14.710;2023-10-13T09:16:20;97760.60;;;21.70
68027;BMP180;54819;48.030;14.710;2023-10-13T09:19:09;97760.40;;;21.80
68027;BMP180;54819;48.030;14.710;2023-10-13T09:21:40;97762.20;;;21.90
68027;BMP180;54819;48.030;14.710;2023-10-13T09:24:11;97762.20;;;21.98
68027;BMP180;54819;48.030;14.710;2023-10-13T09:26:50;97753.20;;;22.00
68027;BMP180;54819;48.030;14.710;2023-10-13T09:29:21;97751.00;;;22.10
68027;BMP180;54819;48.030;14.710;2023-10-13T09:31:58;97748.80;;;22.18
68027;BMP180;54819;48.030;14.710;2023-10-13T09:34:30;97752.80;;;22.24
68027;BMP180;54819;48.030;14.710;2023-10-13T09:37:01;97752.60;;;22.30
68027;BMP180;54819;48.030;14.710;2023-10-13T09:39:32;97754.40;;;22.40
68027;BMP180;54819;48.030;14.710;2023-10-13T09:42:12;97753.60;;;22.48
68027;BMP180;54819;48.030;14.710;2023-10-13T09:44:42;97751.80;;;22.50
68027;BMP180;54819;48.030;14.710;2023-10-13T09:47:22;97748.00;;;22.60
68027;BMP180;54819;48.030;14.710;2023-10-13T09:50:00;97746.00;;;22.70
68027;BMP180;54819;48.030;14.710;2023-10-13T09:52:32;97745.60;;;22.74
68027;BMP180;54819;48.030;14.710;2023-10-13T09:55:35;97743.60;;;22.80
68027;BMP180;54819;48.030;14.710;2023-10-13T09:58:11;97745.20;;;22.90
68027;BMP180;54819;48.030;14.710;2023-10-13T10:00:50;97739.40;;;23.00
68027;BMP180;54819;48.030;14.710;2023-10-13T10:03:24;97736.20;;;23.04
68027;BMP180;54819;48.030;14.710;2023-10-13T10:06:07;97735.00;;;23.10
68027;BMP180;54819;48.030;14.710;2023-10-13T10:08:43;97734.60;;;23.20
68027;BMP180;54819;48.030;14.710;2023-10-13T10:19:19;97727.00;;;23.50
68027;BMP180;54819;48.030;14.710;2023-10-13T10:21:46;97723.20;;;23.50
68027;BMP180;54819;48.030;14.710;2023-10-13T10:24:21;97724.40;;;23.60
68027;BMP180;54819;48.030;14.710;2023-10-13T10:26:56;97721.00;;;23.70
68027;BMP180;54819;48.030;14.710;2023-10-13T10:29:23;97720.80;;;23.70
68027;BMP180;54819;48.030;14.710;2023-10-13T10:31:50;97721.40;;;23.80
68027;BMP180;54819;48.030;14.710;2023-10-13T10:34:18;97718.20;;;23.80
68027;BMP180;54819;48.030;14.710;2023-10-13T10:36:54;97714.20;;;23.90
68027;BMP180;54819;48.030;14.710;2023-10-13T10:39:33;97715.40;;;24.00
68027;BMP180;54819;48.030;14.710;2023-10-13T10:42:11;97708.20;;;24.02
68027;BMP180;54819;48.030;14.710;2023-10-13T10:44:41;97704.80;;;24.10
68027;BMP180;54819;48.030;14.710;2023-10-13T10:47:15;97700.40;;;24.20
68027;BMP180;54819;48.030;14.710;2023-10-13T10:49:59;97696.20;;;24.24
68027;BMP180;54819;48.030;14.710;2023-10-13T10:52:37;97694.80;;;24.30
68027;BMP180;54819;48.030;14.710;2023-10-13T10:55:06;97686.80;;;24.40
68027;BMP180;54819;48.030;14.710;2023-10-13T10:57:40;97685.60;;;24.40
68027;BMP180;54819;48.030;14.710;2023-10-13T11:00:19;97681.40;;;24.50
68027;BMP180;54819;48.030;14.710;2023-10-13T11:02:57;97676.40;;;24.60
68027;BMP180;54819;48.030;14.710;2023-10-13T11:05:24;97676.00;;;24.62
68027;BMP180;54819;48.030;14.710;2023-10-13T11:07:59;97670.40;;;24.72
68027;BMP180;54819;48.030;14.710;2023-10-13T11:10:27;97669.40;;;24.80
68027;BMP180;54819;48.030;14.710;2023-10-13T11:12:59;97665.40;;;24.90
68027;BMP180;54819;48.030;14.710;2023-10-13T11:15:47;97658.00;;;25.00
68027;BMP180;54819;48.030;14.710;2023-10-13T11:18:14;97659.20;;;25.10
68027;BMP180;54819;48.030;14.710;2023-10-13T11:20:56;97660.60;;;25.20
68027;BMP180;54819;48.030;14.710;2023-10-13T11:23:22;97656.20;;;25.30
68027;BMP180;54819;48.030;14.710;2023-10-13T11:25:59;97653.20;;;25.40
68027;BMP180;54819;48.030;14.710;2023-10-13T11:28:26;97645.60;;;25.50
68027;BMP180;54819;48.030;14.710;2023-10-13T11:30:58;97646.60;;;25.60
68027;BMP180;54819;48.030;14.710;2023-10-13T11:33:27;97642.80;;;25.70
68027;BMP180;54819;48.030;14.710;2023-10-13T11:35:56;97644.80;;;25.80
68027;BMP180;54819;48.030;14.710;2023-10-13T11:38:30;97643.00;;;25.90
68027;BMP180;54819;48.030;14.710;2023-10-13T11:41:16;97636.60;;;25.90
68027;BMP180;54819;48.030;14.710;2023-10-13T11:43:47;97633.60;;;26.00
68027;BMP180;54819;48.030;14.710;2023-10-13T11:46:23;97629.40;;;26.10
68027;BMP180;54819;48.030;14.710;2023-10-13T11:49:03;97626.20;;;26.10
68027;BMP180;54819;48.030;14.710;2023-10-13T11:51:42;97625.20;;;26.20
68027;BMP180;54819;48.030;14.710;2023-10-13T11:54:13;97617.20;;;26.30
68027;BMP180;54819;48.030;14.710;2023-10-13T11:56:42;97610.40;;;26.40
68027;BMP180;54819;48.030;14.710;2023-10-13T11:59:08;97605.60;;;26.50
68027;BMP180;54819;48.030;14.710;2023-10-13T12:01:49;97604.60;;;26.62
68027;BMP180;54819;48.030;14.710;2023-10-13T12:04:36;97599.60;;;26.80
68027;BMP180;54819;48.030;14.710;2023-10-13T12:07:21;97595.20;;;26.80
68027;BMP180;54819;48.030;14.710;2023-10-13T12:09:54;97588.20;;;26.80
68027;BMP180;54819;48.030;14.710;2023-10-13T12:12:30;97585.80;;;26.80
68027;BMP180;54819;48.030;14.710;2023-10-13T12:14:57;97583.00;;;26.80
68027;BMP180;54819;48.030;14.710;2023-10-13T12:17:27;97577.60;;;26.78
68027;BMP180;54819;48.030;14.710;2023-10-13T12:19:58;97570.60;;;26.70
68027;BMP180;54819;48.030;14.710;2023-10-13T12:22:32;97567.20;;;26.70
68027;BMP180;54819;48.030;14.710;2023-10-13T12:25:21;97566.20;;;26.70
68027;BMP180;54819;48.030;14.710;2023-10-13T12:27:53;97562.80;;;26.70
68027;BMP180;54819;48.030;14.710;2023-10-13T12:30:24;97561.60;;;26.74
68027;BMP180;54819;48.030;14.710;2023-10-13T12:33:16;97558.00;;;26.80
68027;BMP180;54819;48.030;14.710;2023-10-13T12:36:01;97557.60;;;26.80
68027;BMP180;54819;48.030;14.710;2023-10-13T12:38:41;97549.40;;;26.80
68027;BMP180;54819;48.030;14.710;2023-10-13T12:41:14;97545.80;;;26.80
68027;BMP180;54819;48.030;14.710;2023-10-13T12:44:03;97549.20;;;26.80
68027;BMP180;54819;48.030;14.710;2023-10-13T12:46:50;97542.20;;;26.86
68027;BMP180;54819;48.030;14.710;2023-10-13T12:49:36;97540.60;;;26.90
68027;BMP180;54819;48.030;14.710;2023-10-13T12:52:11;97534.80;;;26.92
68027;BMP180;54819;48.030;14.710;2023-10-13T12:54:53;97532.40;;;27.00
68027;BMP180;54819;48.030;14.710;2023-10-13T12:57:24;97530.80;;;27.04
68027;BMP180;54819;48.030;14.710;2023-10-13T12:59:51;97529.60;;;27.10
68027;BMP180;54819;48.030;14.710;2023-10-13T13:02:24;97528.40;;;27.20
68027;BMP180;54819;48.030;14.710;2023-10-13T13:04:53;97526.60;;;27.20
68027;BMP180;54819;48.030;14.710;2023-10-13T13:07:40;97521.60;;;27.20
68027;BMP180;54819;48.030;14.710;2023-10-13T13:10:17;97514.00;;;27.20
68027;BMP180;54819;48.030;14.710;2023-10-13T13:12:43;97506.60;;;27.20
68027;BMP180;54819;48.030;14.710;2023-10-13T13:15:10;97510.60;;;27.20
68027;BMP180;54819;48.030;14.710;2023-10-13T13:17:40;97507.60;;;27.20
68027;BMP180;54819;48.030;14.710;2023-10-13T13:20:08;97501.40;;;27.20
68027;BMP180;54819;48.030;14.710;2023-10-13T13:22:53;97495.60;;;27.20
68027;BMP180;54819;48.030;14.710;2023-10-13T13:25:20;97493.80;;;27.20
68027;BMP180;54819;48.030;14.710;2023-10-13T13:27:57;97487.80;;;27.10
68027;BMP180;54819;48.030;14.710;2023-10-13T13:30:25;97485.80;;;27.10
68027;BMP180;54819;48.030;14.710;2023-10-13T13:32:58;97484.80;;;27.08
68027;BMP180;54819;48.030;14.710;2023-10-13T13:35:30;97480.20;;;27.00
68027;BMP180;54819;48.030;14.710;2023-10-13T13:38:02;97477.00;;;27.00
68027;BMP180;54819;48.030;14.710;2023-10-13T13:40:48;97478.00;;;26.96
68027;BMP180;54819;48.030;14.710;2023-10-13T13:43:16;97477.80;;;26.90
68027;BMP180;54819;48.030;14.710;2023-10-13T13:45:59;97476.80;;;26.90
68027;BMP180;54819;48.030;14.710;2023-10-13T13:48:29;97472.80;;;26.80
68027;BMP180;54819;48.030;14.710;2023-10-13T13:50:57;97468.80;;;26.78
68027;BMP180;54819;48.030;14.710;2023-10-13T13:53:32;97466.00;;;26.70
68027;BMP180;54819;48.030;14.710;2023-10-13T13:56:02;97462.20;;;26.70
68027;BMP180;54819;48.030;14.710;2023-10-13T13:58:30;97459.40;;;26.60
68027;BMP180;54819;48.030;14.710;2023-10-13T14:01:01;97459.20;;;26.60
68027;BMP180;54819;48.030;14.710;2023-10-13T14:03:41;97458.00;;;26.50
68027;BMP180;54819;48.030;14.710;2023-10-13T14:06:20;97455.40;;;26.50
68027;BMP180;54819;48.030;14.710;2023-10-13T14:08:51;97452.20;;;26.40
68027;BMP180;54819;48.030;14.710;2023-10-13T14:11:24;97452.00;;;26.40
68027;BMP180;54819;48.030;14.710;2023-10-13T14:16:42;97442.00;;;26.30
68027;BMP180;54819;48.030;14.710;2023-10-13T14:19:14;97441.40;;;26.20
68027;BMP180;54819;48.030;14.710;2023-10-13T14:21:46;97437.80;;;26.10
68027;BMP180;54819;48.030;14.710;2023-10-13T14:24:20;97433.60;;;26.02
68027;BMP180;54819;48.030;14.710;2023-10-13T14:26:57;97431.40;;;26.00
68027;BMP180;54819;48.030;14.710;2023-10-13T14:29:39;97431.40;;;25.90
68027;BMP180;54819;48.030;14.710;2023-10-13T14:32:09;97431.20;;;25.90
68027;BMP180;54819;48.030;14.710;2023-10-13T14:34:43;97426.60;;;25.80
68027;BMP180;54819;48.030;14.710;2023-10-13T14:37:11;97429.00;;;25.74
68027;BMP180;54819;48.030;14.710;2023-10-13T14:39:41;97423.00;;;25.70
68027;BMP180;54819;48.030;14.710;2023-10-13T14:42:08;97421.20;;;25.64
68027;BMP180;54819;48.030;14.710;2023-10-13T14:44:35;97421.40;;;25.60
68027;BMP180;54819;48.030;14.710;2023-10-13T14:47:04;97416.40;;;25.60
68027;BMP180;54819;48.030;14.710;2023-10-13T14:49:35;97415.80;;;25.60
68027;BMP180;54819;48.030;14.710;2023-10-13T14:52:02;97411.60;;;25.70
68027;BMP180;54819;48.030;14.710;2023-10-13T14:54:29;97408.80;;;25.60
68027;BMP180;54819;48.030;14.710;2023-10-13T14:57:02;97403.00;;;25.50
68027;BMP180;54819;48.030;14.710;2023-10-13T14:59:29;97411.60;;;25.50